createdAt,value
2019-02-21T00:01:35.817Z,73.75
2019-02-21T00:04:03.287Z,73.51
2019-02-21T00:06:30.747Z,74.64
2019-02-21T00:08:58.214Z,74.04
2019-02-21T00:11:25.681Z,74.54
2019-02-21T00:13:53.153Z,73.74
2019-02-21T00:16:20.622Z,73.13
2019-02-21T00:18:49.230Z,72.71
2019-02-21T00:21:16.743Z,74.06
2019-02-21T00:23:44.235Z,73.15
2019-02-21T00:26:11.699Z,72.92
2019-02-21T00:28:39.137Z,71.83
2019-02-21T00:31:06.607Z,72.87
2019-02-21T00:33:34.081Z,73.04
2019-02-21T00:36:01.547Z,72.16
2019-02-21T00:38:28.994Z,71.53
2019-02-21T00:40:56.470Z,72.35
2019-02-21T00:43:23.933Z,71.49
2019-02-21T00:45:51.378Z,70.46
2019-02-21T00:48:18.856Z,69.69
2019-02-21T00:50:46.893Z,70.07
2019-02-21T00:53:14.385Z,69.46
2019-02-21T00:55:41.833Z,69.22
2019-02-21T00:58:09.294Z,69.13
2019-02-21T01:00:46.136Z,69.14
2019-02-21T01:03:04.207Z,69.00
2019-02-21T01:05:31.664Z,69.33
2019-02-21T01:07:59.165Z,69.24
2019-02-21T01:10:26.607Z,68.92
2019-02-21T01:12:54.069Z,69.72
2019-02-21T01:15:21.557Z,69.51
2019-02-21T01:17:49.005Z,69.42
2019-02-21T01:20:17.452Z,68.90
2019-02-21T01:22:44.922Z,69.03
2019-02-21T01:25:12.419Z,69.06
2019-02-21T01:27:39.891Z,68.68
2019-02-21T01:30:07.344Z,69.39
2019-02-21T01:32:34.823Z,69.31
2019-02-21T01:35:02.254Z,68.54
2019-02-21T01:37:29.739Z,68.84
2019-02-21T01:39:57.217Z,68.96
2019-02-21T01:42:26.004Z,69.22
2019-02-21T01:44:53.577Z,69.21
2019-02-21T01:47:21.045Z,69.47
2019-02-21T01:49:48.517Z,68.93
2019-02-21T01:52:15.987Z,68.98
2019-02-21T01:54:43.474Z,68.13
2019-02-21T01:57:10.953Z,68.24
2019-02-21T01:59:38.429Z,67.81
2019-02-21T02:02:05.867Z,68.89
2019-02-21T02:04:33.327Z,69.06
2019-02-21T02:07:00.792Z,69.03
2019-02-21T02:09:28.242Z,69.27
2019-02-21T02:11:55.700Z,69.43
2019-02-21T02:14:23.151Z,69.37
2019-02-21T02:16:50.617Z,69.49
2019-02-21T02:19:18.496Z,70.05
2019-02-21T02:21:45.985Z,69.81
2019-02-21T02:24:14.842Z,69.92
2019-02-21T02:26:41.832Z,69.42
2019-02-21T02:29:09.385Z,69.71
2019-02-21T02:31:36.833Z,69.88
2019-02-21T02:34:04.299Z,73.64
2019-02-21T02:36:31.758Z,72.65
2019-02-21T02:38:59.227Z,71.74
2019-02-21T02:41:26.671Z,72.52
2019-02-21T02:43:54.097Z,73.98
2019-02-21T02:46:21.539Z,73.68
2019-02-21T02:48:49.069Z,74.29
2019-02-21T02:51:16.559Z,73.69
2019-02-21T02:53:44.020Z,74.48
2019-02-21T02:56:11.489Z,74.65
2019-02-21T02:58:38.984Z,73.26
2019-02-21T03:01:07.503Z,72.18
2019-02-21T03:03:35.125Z,72.35
2019-02-21T03:06:02.641Z,71.97
2019-02-21T03:08:30.082Z,71.31
2019-02-21T03:10:57.519Z,71.87
2019-02-21T03:13:24.979Z,71.01
2019-02-21T03:15:52.409Z,70.69
2019-02-21T03:18:19.853Z,71.74
2019-02-21T03:20:47.309Z,71.17
2019-02-21T03:23:14.795Z,71.89
2019-02-21T03:25:42.259Z,73.39
2019-02-21T03:28:09.725Z,73.72
2019-02-21T03:30:37.173Z,73.84
2019-02-21T03:33:04.651Z,74.55
2019-02-21T03:35:33.677Z,74.73
2019-02-21T03:38:01.122Z,75.37
2019-02-21T03:40:28.588Z,74.49
2019-02-21T03:42:56.127Z,74.94
2019-02-21T03:45:23.551Z,74.02
2019-02-21T03:47:51.009Z,74.22
2019-02-21T03:50:18.497Z,75.43
2019-02-21T03:52:45.984Z,74.43
2019-02-21T03:55:13.443Z,74.45
2019-02-21T03:57:40.898Z,74.51
2019-02-21T04:00:08.381Z,74.39
2019-02-21T04:02:35.849Z,74.76
2019-02-21T04:05:03.375Z,75.45
2019-02-21T04:07:30.815Z,74.93
2019-02-21T04:09:58.304Z,74.95
2019-02-21T04:12:25.751Z,75.54
2019-02-21T04:14:53.214Z,75.25
2019-02-21T04:17:20.993Z,76.34
2019-02-21T04:19:48.620Z,75.73
2019-02-21T04:22:16.123Z,75.75
2019-02-21T04:24:43.575Z,75.45
2019-02-21T04:27:11.032Z,75.54
2019-02-21T04:29:38.530Z,75.25
2019-02-21T04:32:16.659Z,75.20
2019-02-21T04:34:33.470Z,75.74
2019-02-21T04:37:00.946Z,76.87
2019-02-21T04:39:28.407Z,76.43
2019-02-21T04:41:55.912Z,75.21
2019-02-21T04:44:23.379Z,75.32
2019-02-21T04:46:51.633Z,76.45
2019-02-21T04:49:19.059Z,75.33
2019-02-21T04:51:46.547Z,76.18
2019-02-21T04:54:13.978Z,75.65
2019-02-21T04:56:41.498Z,75.26
2019-02-21T04:59:08.968Z,75.60
2019-02-21T05:01:36.443Z,76.56
2019-02-21T05:04:04.931Z,75.99
2019-02-21T05:06:31.372Z,75.78
2019-02-21T05:08:58.861Z,75.00
2019-02-21T05:11:26.335Z,74.82
2019-02-21T05:13:54.077Z,74.79
2019-02-21T05:16:22.324Z,75.18
2019-02-21T05:18:49.809Z,74.06
2019-02-21T05:21:17.269Z,73.98
2019-02-21T05:23:44.738Z,75.09
2019-02-21T05:26:12.186Z,74.28
2019-02-21T05:28:41.280Z,73.58
2019-02-21T05:31:22.922Z,74.47
2019-02-21T05:33:50.878Z,75.15
2019-02-21T05:36:21.325Z,75.04
2019-02-21T05:39:07.511Z,74.64
2019-02-21T05:41:35.755Z,74.68
2019-02-21T05:44:08.920Z,74.29
2019-02-21T05:46:37.899Z,75.71
2019-02-21T05:49:11.484Z,75.77
2019-02-21T05:51:38.075Z,75.57
2019-02-21T05:54:07.072Z,76.69
2019-02-21T05:56:35.386Z,78.07
2019-02-21T05:59:05.652Z,78.29
2019-02-21T06:01:33.878Z,77.83
2019-02-21T06:04:19.399Z,76.68
2019-02-21T06:06:45.470Z,76.44
2019-02-21T06:09:12.930Z,75.79
2019-02-21T06:11:42.222Z,76.42
2019-02-21T06:14:11.416Z,75.43
2019-02-21T06:16:40.728Z,74.91
2019-02-21T06:19:09.124Z,76.08
2019-02-21T06:21:38.137Z,76.52
2019-02-21T06:24:11.258Z,77.09
2019-02-21T06:26:39.626Z,76.21
2019-02-21T06:29:06.685Z,76.67
2019-02-21T06:31:34.195Z,76.96
2019-02-21T06:34:01.781Z,77.11
2019-02-21T06:36:29.264Z,76.64
2019-02-21T06:38:56.719Z,77.42
2019-02-21T06:41:24.213Z,77.62
2019-02-21T06:43:52.692Z,76.15
2019-02-21T06:46:19.271Z,76.80
2019-02-21T06:48:46.725Z,76.26
2019-02-21T06:51:14.252Z,76.76
2019-02-21T06:53:41.638Z,78.39
2019-02-21T06:56:09.096Z,76.67
2019-02-21T06:58:36.540Z,77.59
2019-02-21T07:01:03.970Z,76.76
2019-02-21T07:03:31.461Z,76.86
2019-02-21T07:05:58.915Z,77.11
2019-02-21T07:08:26.464Z,76.74
2019-02-21T07:11:05.457Z,76.38
2019-02-21T07:13:26.466Z,76.25
2019-02-21T07:15:49.495Z,76.69
2019-02-21T07:18:17.037Z,76.79
2019-02-21T07:20:44.538Z,76.90
2019-02-21T07:23:12.016Z,77.26
2019-02-21T07:25:47.627Z,77.53
2019-02-21T07:28:16.092Z,77.86
2019-02-21T07:30:43.086Z,77.88
2019-02-21T07:33:10.087Z,77.80
2019-02-21T07:35:37.557Z,79.34
2019-02-21T07:38:05.021Z,78.46
2019-02-21T07:40:32.486Z,78.52
2019-02-21T07:42:59.914Z,78.51
2019-02-21T07:45:27.402Z,79.24
2019-02-21T07:47:55.349Z,79.61
2019-02-21T07:50:23.271Z,79.11
2019-02-21T07:53:01.538Z,78.63
2019-02-21T07:55:17.853Z,79.72
2019-02-21T07:57:45.326Z,80.65
2019-02-21T08:00:12.800Z,80.39
2019-02-21T08:02:40.271Z,79.24
2019-02-21T08:05:07.713Z,79.58
2019-02-21T08:07:35.162Z,79.87
2019-02-21T08:10:02.651Z,79.28
2019-02-21T08:12:30.111Z,79.26
2019-02-21T08:14:57.578Z,79.24
2019-02-21T08:17:27.826Z,79.49
2019-02-21T08:19:53.357Z,79.49
2019-02-21T08:22:20.890Z,79.43
2019-02-21T08:24:48.376Z,78.72
2019-02-21T08:27:15.812Z,78.80
2019-02-21T08:29:43.263Z,78.82
2019-02-21T08:32:10.699Z,77.38
2019-02-21T08:34:39.138Z,78.09
2019-02-21T08:37:08.742Z,77.67
2019-02-21T08:39:34.065Z,77.75
2019-02-21T08:42:01.524Z,78.60
2019-02-21T08:44:29.142Z,78.24
2019-02-21T08:46:56.566Z,78.40
2019-02-21T08:49:23.995Z,78.28
2019-02-21T08:51:51.487Z,77.54
2019-02-21T08:54:18.941Z,77.87
2019-02-21T08:56:46.407Z,77.66
2019-02-21T08:59:13.889Z,76.99
2019-02-21T09:01:41.348Z,77.26
2019-02-21T09:04:13.553Z,77.00
2019-02-21T09:06:36.270Z,77.72
2019-02-21T09:09:03.746Z,77.67
2019-02-21T09:11:31.187Z,77.19
2019-02-21T09:13:58.647Z,77.09
2019-02-21T09:16:27.027Z,77.67
2019-02-21T09:18:54.507Z,77.77
2019-02-21T09:21:21.977Z,77.46
2019-02-21T09:23:49.945Z,77.42
2019-02-21T09:26:17.396Z,77.44
2019-02-21T09:28:44.866Z,77.51
2019-02-21T09:31:12.320Z,77.65
2019-02-21T09:33:39.786Z,78.18
2019-02-21T09:36:07.249Z,77.77
2019-02-21T09:38:34.925Z,77.97
2019-02-21T09:41:02.236Z,77.66
2019-02-21T09:43:29.691Z,77.69
2019-02-21T09:45:59.139Z,77.66
2019-02-21T09:48:27.498Z,78.00
2019-02-21T09:50:54.978Z,77.70
2019-02-21T09:53:22.488Z,77.88
2019-02-21T09:55:50.521Z,77.43
2019-02-21T09:58:17.420Z,77.80
2019-02-21T10:00:44.870Z,77.41
2019-02-21T10:03:12.327Z,77.15
2019-02-21T10:05:39.811Z,77.31
2019-02-21T10:08:09.137Z,77.22
2019-02-21T10:10:36.733Z,77.28
2019-02-21T10:13:04.367Z,77.49
2019-02-21T10:15:31.850Z,77.34
2019-02-21T10:17:59.309Z,77.16
2019-02-21T10:20:28.089Z,77.02
2019-02-21T10:22:55.538Z,76.84
2019-02-21T10:25:23.394Z,77.26
2019-02-21T10:27:50.515Z,77.01
2019-02-21T10:30:18.006Z,77.15
2019-02-21T10:32:45.493Z,77.47
2019-02-21T10:35:12.943Z,77.22
2019-02-21T10:37:40.425Z,76.97
2019-02-21T10:40:07.878Z,76.89
2019-02-21T10:42:35.343Z,77.12
2019-02-21T10:45:03.511Z,76.79
2019-02-21T10:47:30.266Z,77.12
2019-02-21T10:49:58.770Z,77.28
2019-02-21T10:52:26.235Z,76.91
2019-02-21T10:54:53.706Z,76.66
2019-02-21T10:57:21.135Z,76.38
2019-02-21T10:59:48.596Z,76.06
2019-02-21T11:02:16.063Z,76.00
2019-02-21T11:04:54.147Z,75.08
2019-02-21T11:07:10.988Z,75.61
2019-02-21T11:09:38.439Z,75.81
2019-02-21T11:12:05.910Z,75.01
2019-02-21T11:14:33.396Z,74.90
2019-02-21T11:17:00.895Z,74.34
2019-02-21T11:19:29.241Z,74.25
2019-02-21T11:21:56.710Z,73.69
2019-02-21T11:24:24.188Z,72.87
2019-02-21T11:26:51.632Z,72.89
2019-02-21T11:29:19.098Z,72.62
2019-02-21T11:31:46.573Z,71.86
2019-02-21T11:34:14.018Z,72.42
2019-02-21T11:36:41.481Z,71.85
2019-02-21T11:39:08.951Z,71.93
2019-02-21T11:41:37.373Z,72.00
2019-02-21T11:44:04.904Z,70.82
2019-02-21T11:46:32.335Z,70.10
2019-02-21T11:48:59.791Z,70.30
2019-02-21T11:51:27.275Z,69.74
2019-02-21T11:53:54.805Z,69.19
2019-02-21T11:56:22.310Z,69.04
2019-02-21T11:58:49.790Z,69.19
2019-02-21T12:01:17.236Z,69.41
2019-02-21T12:03:44.695Z,69.67
2019-02-21T12:06:12.151Z,69.57
2019-02-21T12:08:39.602Z,69.35
2019-02-21T12:11:07.075Z,68.58
2019-02-21T12:13:34.536Z,68.68
2019-02-21T12:16:02.009Z,68.32
2019-02-21T12:18:30.244Z,68.40
2019-02-21T12:20:57.751Z,68.78
2019-02-21T12:23:25.249Z,69.50
2019-02-21T12:25:52.754Z,69.05
2019-02-21T12:28:20.233Z,68.89
2019-02-21T12:30:48.219Z,68.52
2019-02-21T12:33:15.858Z,68.69
2019-02-21T12:35:43.323Z,68.20
2019-02-21T12:38:10.776Z,67.37
2019-02-21T12:40:38.336Z,66.60
2019-02-21T12:43:05.713Z,65.93
2019-02-21T12:45:33.184Z,66.09
2019-02-21T12:48:00.817Z,66.07
2019-02-21T12:50:28.337Z,66.19
2019-02-21T12:52:55.789Z,66.14
2019-02-21T12:55:29.250Z,65.41
2019-02-21T12:57:50.710Z,64.41
2019-02-21T13:00:19.035Z,63.68
2019-02-21T13:02:46.503Z,63.15
2019-02-21T13:05:13.987Z,62.95
2019-02-21T13:07:41.475Z,63.10
2019-02-21T13:10:11.733Z,63.71
2019-02-21T13:12:39.243Z,62.92
2019-02-21T13:15:06.705Z,63.66
2019-02-21T13:17:34.211Z,63.34
2019-02-21T13:20:01.676Z,62.98
2019-02-21T13:22:29.135Z,62.50
2019-02-21T13:24:56.577Z,62.59
2019-02-21T13:27:24.039Z,61.84
2019-02-21T13:29:54.475Z,62.06
2019-02-21T13:32:18.964Z,62.28
2019-02-21T13:34:46.427Z,62.75
2019-02-21T13:37:14.213Z,62.66
2019-02-21T13:39:42.329Z,62.74
2019-02-21T13:42:09.808Z,62.73
2019-02-21T13:44:37.278Z,62.73
2019-02-21T13:47:04.735Z,62.87
2019-02-21T13:49:32.212Z,62.90
2019-02-21T13:51:59.651Z,62.38
2019-02-21T13:54:27.131Z,62.50
2019-02-21T13:56:54.585Z,62.56
2019-02-21T13:59:22.043Z,63.06
2019-02-21T14:01:49.507Z,62.25
2019-02-21T14:04:16.943Z,62.39
2019-02-21T14:06:44.405Z,63.87
2019-02-21T14:09:11.921Z,63.84
2019-02-21T14:11:39.416Z,64.15
2019-02-21T14:14:06.872Z,64.76
2019-02-21T14:16:43.830Z,64.54
2019-02-21T14:19:02.607Z,64.98
2019-02-21T14:21:30.096Z,65.43
2019-02-21T14:23:57.541Z,66.49
2019-02-21T14:26:25.036Z,66.57
2019-02-21T14:28:52.485Z,66.33
2019-02-21T14:31:19.938Z,65.91
2019-02-21T14:33:47.417Z,66.04
2019-02-21T14:36:16.785Z,66.58
2019-02-21T14:38:42.330Z,65.10
2019-02-21T14:41:09.803Z,64.65
2019-02-21T14:43:37.290Z,64.66
2019-02-21T14:46:04.751Z,64.73
2019-02-21T14:48:33.128Z,64.38
2019-02-21T14:51:00.597Z,64.03
2019-02-21T14:53:28.041Z,64.82
2019-02-21T14:55:55.573Z,65.53
2019-02-21T14:58:23.019Z,65.22
2019-02-21T15:00:50.487Z,65.21
2019-02-21T15:03:21.908Z,64.20
2019-02-21T15:05:45.440Z,64.21
2019-02-21T15:08:12.914Z,64.56
2019-02-21T15:10:40.376Z,65.04
2019-02-21T15:13:07.862Z,64.73
2019-02-21T15:15:35.298Z,64.56
2019-02-21T15:18:07.373Z,64.68
2019-02-21T15:20:36.897Z,65.33
2019-02-21T15:22:58.773Z,65.12
2019-02-21T15:25:26.256Z,65.29
2019-02-21T15:27:53.714Z,65.04
2019-02-21T15:30:22.059Z,65.32
2019-02-21T15:32:49.529Z,65.45
2019-02-21T15:35:19.263Z,65.20
2019-02-21T15:37:45.130Z,66.35
2019-02-21T15:40:12.003Z,65.96
2019-02-21T15:42:39.489Z,65.64
2019-02-21T15:45:09.710Z,66.33
2019-02-21T15:47:35.819Z,66.56
2019-02-21T15:50:04.395Z,66.71
2019-02-21T15:52:31.837Z,66.92
2019-02-21T15:54:59.295Z,66.58
2019-02-21T15:57:26.762Z,66.67
2019-02-21T15:59:54.238Z,66.71
2019-02-21T16:02:21.746Z,67.27
2019-02-21T16:04:49.847Z,67.59
2019-02-21T16:07:17.413Z,67.74
2019-02-21T16:09:44.860Z,67.48
2019-02-21T16:12:12.556Z,67.44
2019-02-21T16:14:39.817Z,67.51
2019-02-21T16:17:07.313Z,67.28
2019-02-21T16:19:35.717Z,67.81
2019-02-21T16:22:03.181Z,68.20
2019-02-21T16:24:30.687Z,68.36
2019-02-21T16:26:59.937Z,67.79
2019-02-21T16:29:28.320Z,67.58
2019-02-21T16:31:55.787Z,67.51
2019-02-21T16:34:23.251Z,67.79
2019-02-21T16:37:01.861Z,67.90
2019-02-21T16:39:18.242Z,68.42
2019-02-21T16:41:45.711Z,68.33
2019-02-21T16:44:13.194Z,68.62
2019-02-21T16:46:40.644Z,68.30
2019-02-21T16:49:08.663Z,68.46
2019-02-21T16:51:36.205Z,68.97
2019-02-21T16:54:03.672Z,69.75
2019-02-21T16:56:31.138Z,69.62
2019-02-21T16:58:58.644Z,69.39
2019-02-21T17:01:26.075Z,69.40
2019-02-21T17:03:53.562Z,69.54
2019-02-21T17:06:21.037Z,69.94
2019-02-21T17:08:48.502Z,70.51
2019-02-21T17:11:18.110Z,70.75
2019-02-21T17:13:45.779Z,70.68
2019-02-21T17:16:13.223Z,70.99
2019-02-21T17:18:40.701Z,71.67
2019-02-21T17:21:08.153Z,72.35
2019-02-21T17:23:36.123Z,72.59
2019-02-21T17:26:03.587Z,72.30
2019-02-21T17:28:31.067Z,72.29
2019-02-21T17:30:58.501Z,73.33
2019-02-21T17:33:25.988Z,72.32
2019-02-21T17:35:53.440Z,73.18
2019-02-21T17:38:20.901Z,73.58
2019-02-21T17:40:48.379Z,74.47
2019-02-21T17:43:16.066Z,74.81
2019-02-21T17:45:43.882Z,74.54
2019-02-21T17:48:12.724Z,74.75
2019-02-21T17:50:40.663Z,75.21
2019-02-21T17:53:09.409Z,76.48
2019-02-21T17:55:37.827Z,76.78
2019-02-21T17:58:06.097Z,77.03
2019-02-21T18:00:41.073Z,77.53
2019-02-21T18:03:08.543Z,77.10
2019-02-21T18:05:35.989Z,76.58
2019-02-21T18:08:03.497Z,76.86
2019-02-21T18:10:30.978Z,76.71
2019-02-21T18:12:58.462Z,77.00
2019-02-21T18:15:25.944Z,76.58
2019-02-21T18:17:53.454Z,76.42
2019-02-21T18:20:20.941Z,75.53
2019-02-21T18:22:49.035Z,75.54
2019-02-21T18:25:16.620Z,75.99
2019-02-21T18:27:44.161Z,75.11
2019-02-21T18:30:11.871Z,75.52
2019-02-21T18:32:40.013Z,76.65
2019-02-21T18:35:07.878Z,76.70
2019-02-21T18:37:46.670Z,77.02
2019-02-21T18:40:04.176Z,78.13
2019-02-21T18:42:31.900Z,78.27
2019-02-21T18:44:59.404Z,79.08
2019-02-21T18:47:26.882Z,78.99
2019-02-21T18:49:54.355Z,78.47
2019-02-21T18:52:21.977Z,78.96
2019-02-21T18:54:49.860Z,77.97
2019-02-21T18:57:17.474Z,79.16
2019-02-21T18:59:45.135Z,79.11
2019-02-21T19:02:12.615Z,80.30
2019-02-21T19:04:40.050Z,81.20
2019-02-21T19:07:08.567Z,82.63
2019-02-21T19:09:36.038Z,85.06
2019-02-21T19:12:04.574Z,86.00
2019-02-21T19:14:32.095Z,86.73
2019-02-21T19:16:59.568Z,86.66
2019-02-21T19:19:27.024Z,87.49
2019-02-21T19:21:54.488Z,87.10
2019-02-21T19:24:22.006Z,87.63
2019-02-21T19:26:49.471Z,87.70
2019-02-21T19:29:16.956Z,87.67
2019-02-21T19:31:44.501Z,87.32
2019-02-21T19:34:11.962Z,87.06
2019-02-21T19:36:39.427Z,86.54
2019-02-21T19:39:06.900Z,86.64
2019-02-21T19:41:34.419Z,86.13
2019-02-21T19:44:08.743Z,86.74
2019-02-21T19:46:29.382Z,86.30
2019-02-21T19:48:56.940Z,86.81
2019-02-21T19:51:24.428Z,87.43
2019-02-21T19:53:51.900Z,87.79
2019-02-21T19:56:19.408Z,88.94
2019-02-21T19:58:46.879Z,88.38
2019-02-21T20:01:14.336Z,88.42
2019-02-21T20:03:41.887Z,88.06
2019-02-21T20:06:09.749Z,88.76
2019-02-21T20:08:37.242Z,89.18
2019-02-21T20:11:04.736Z,89.54
2019-02-21T20:13:32.246Z,89.68
2019-02-21T20:15:59.760Z,89.45
2019-02-21T20:18:27.252Z,89.71
2019-02-21T20:20:56.108Z,90.35
2019-02-21T20:23:23.638Z,90.33
2019-02-21T20:25:51.116Z,90.25
2019-02-21T20:28:18.628Z,90.45
2019-02-21T20:30:46.117Z,90.80
2019-02-21T20:33:13.604Z,90.47
2019-02-21T20:35:41.078Z,90.56
2019-02-21T20:38:08.519Z,90.20
2019-02-21T20:40:35.970Z,90.01
2019-02-21T20:43:03.596Z,90.46
2019-02-21T20:45:31.081Z,90.67
2019-02-21T20:47:58.566Z,90.86
2019-02-21T20:50:26.065Z,91.30
2019-02-21T20:52:53.529Z,90.64
2019-02-21T20:55:21.046Z,91.16
2019-02-21T20:57:48.724Z,91.56
2019-02-21T21:00:16.222Z,91.50
2019-02-21T21:02:43.684Z,91.35
2019-02-21T21:05:11.309Z,91.78
2019-02-21T21:07:38.760Z,92.52
2019-02-21T21:10:06.215Z,92.43
2019-02-21T21:12:33.717Z,93.82
2019-02-21T21:15:01.210Z,93.14
2019-02-21T21:17:28.663Z,93.08
2019-02-21T21:19:56.146Z,92.92
2019-02-21T21:22:23.590Z,93.39
2019-02-21T21:24:51.091Z,92.96
2019-02-21T21:27:18.828Z,93.25
2019-02-21T21:29:46.333Z,93.31
2019-02-21T21:32:13.841Z,94.14
2019-02-21T21:34:41.798Z,94.78
2019-02-21T21:37:09.282Z,95.02
2019-02-21T21:39:36.732Z,94.52
2019-02-21T21:42:04.254Z,95.11
2019-02-21T21:44:31.705Z,95.30
2019-02-21T21:46:59.191Z,95.09
2019-02-21T21:49:26.683Z,94.67
2019-02-21T21:51:54.154Z,95.15
2019-02-21T21:54:21.796Z,95.07
2019-02-21T21:56:49.374Z,94.58
2019-02-21T21:59:16.979Z,94.09
2019-02-21T22:01:44.483Z,94.38
2019-02-21T22:04:12.585Z,94.79
2019-02-21T22:06:40.107Z,95.20
2019-02-21T22:09:07.659Z,95.21
2019-02-21T22:11:35.257Z,94.96
2019-02-21T22:14:02.802Z,94.36
2019-02-21T22:16:30.309Z,95.07
2019-02-21T22:18:57.767Z,95.45
2019-02-21T22:21:25.272Z,95.70
2019-02-21T22:23:52.862Z,95.55
2019-02-21T22:26:21.478Z,95.50
2019-02-21T22:28:49.040Z,95.42
2019-02-21T22:31:16.507Z,95.54
2019-02-21T22:33:43.996Z,96.08
2019-02-21T22:36:12.295Z,95.85
2019-02-21T22:38:39.815Z,95.92
2019-02-21T22:41:07.336Z,95.88
2019-02-21T22:43:34.842Z,96.58
2019-02-21T22:46:02.336Z,96.87
2019-02-21T22:48:29.948Z,96.38
2019-02-21T22:50:57.465Z,95.69
2019-02-21T22:53:24.952Z,99.68
2019-02-21T22:55:52.452Z,96.72
2019-02-21T22:58:19.925Z,96.95
2019-02-21T23:00:53.721Z,97.24
2019-02-21T23:03:21.215Z,96.97
2019-02-21T23:06:11.211Z,96.26
2019-02-21T23:08:47.156Z,96.43
2019-02-21T23:11:14.644Z,96.52
2019-02-21T23:13:42.168Z,96.71
2019-02-21T23:16:09.594Z,96.52
2019-02-21T23:18:37.032Z,96.29
2019-02-21T23:21:04.472Z,95.54
2019-02-21T23:23:31.955Z,95.98
2019-02-21T23:25:59.397Z,95.81
2019-02-21T23:28:26.859Z,95.25
2019-02-21T23:30:54.307Z,95.62
2019-02-21T23:33:21.791Z,96.03
2019-02-21T23:35:49.262Z,96.11
2019-02-21T23:38:16.736Z,96.26
2019-02-21T23:40:44.440Z,96.47
2019-02-21T23:43:11.906Z,96.19
2019-02-21T23:45:40.027Z,96.24
2019-02-21T23:48:07.542Z,95.80
2019-02-21T23:50:35.004Z,95.56
2019-02-21T23:53:02.484Z,94.82
2019-02-21T23:55:29.940Z,94.54
2019-02-21T23:57:57.390Z,94.91
